createdAt,value
2022-11-20T00:01:16.674Z,16.40
2022-11-20T00:03:43.975Z,14.88
2022-11-20T00:06:16.929Z,12.07
2022-11-20T00:08:44.609Z,13.50
2022-11-20T00:11:19.653Z,14.00
2022-11-20T00:13:48.030Z,13.37
2022-11-20T00:16:17.973Z,14.48
2022-11-20T00:18:45.162Z,18.25
2022-11-20T00:21:17.352Z,11.52
2022-11-20T00:23:44.561Z,14.88
2022-11-20T00:26:16.278Z,18.57
2022-11-20T00:28:45.499Z,16.45
2022-11-20T00:31:16.681Z,18.20
2022-11-20T00:33:44.640Z,16.42
2022-11-20T00:36:19.877Z,20.27
2022-11-20T00:38:47.338Z,23.00
2022-11-20T00:41:17.388Z,23.15
2022-11-20T00:43:44.629Z,17.67
2022-11-20T00:46:15.303Z,18.88
2022-11-20T00:48:42.841Z,17.52
2022-11-20T00:51:09.946Z,26.20
2022-11-20T00:53:36.885Z,18.58
2022-11-20T00:56:06.507Z,20.60
2022-11-20T00:58:36.061Z,19.55
2022-11-20T01:01:07.756Z,17.23
2022-11-20T01:03:36.501Z,20.13
2022-11-20T01:06:06.665Z,21.27
2022-11-20T01:08:35.333Z,17.20
2022-11-20T01:11:08.563Z,21.30
2022-11-20T01:13:38.711Z,17.20
2022-11-20T01:16:10.790Z,17.63
2022-11-20T01:18:39.435Z,15.55
2022-11-20T01:21:09.503Z,14.07
2022-11-20T01:23:39.030Z,15.77
2022-11-20T01:26:09.254Z,17.10
2022-11-20T01:28:36.308Z,17.00
2022-11-20T01:31:18.411Z,16.10
2022-11-20T01:33:46.855Z,18.45
2022-11-20T01:36:15.199Z,19.25
2022-11-20T01:38:42.627Z,15.65
2022-11-20T01:41:10.899Z,21.50
2022-11-20T01:43:38.171Z,15.48
2022-11-20T01:46:18.950Z,18.38
2022-11-20T01:48:51.560Z,16.63
2022-11-20T01:51:24.919Z,18.15
2022-11-20T01:53:55.237Z,18.27
2022-11-20T01:56:23.553Z,18.45
2022-11-20T01:58:55.156Z,15.43
2022-11-20T02:01:22.710Z,16.83
2022-11-20T02:03:51.407Z,17.15
2022-11-20T02:06:26.643Z,17.37
2022-11-20T02:08:53.848Z,15.10
2022-11-20T02:11:21.019Z,20.55
2022-11-20T02:13:48.230Z,14.40
2022-11-20T02:16:23.637Z,17.45
2022-11-20T02:18:51.493Z,16.13
2022-11-20T02:21:51.859Z,15.93
2022-11-20T02:24:20.347Z,15.07
2022-11-20T02:27:16.624Z,15.25
2022-11-20T02:29:57.874Z,13.15
2022-11-20T02:32:29.673Z,11.60
2022-11-20T02:34:57.870Z,13.70
2022-11-20T02:37:31.703Z,13.82
2022-11-20T02:39:58.764Z,13.13
2022-11-20T02:42:25.640Z,13.75
2022-11-20T02:44:52.616Z,13.80
2022-11-20T02:47:19.453Z,15.40
2022-11-20T02:49:46.241Z,9.85
2022-11-20T02:52:13.248Z,15.48
2022-11-20T02:54:40.077Z,12.60
2022-11-20T02:57:06.938Z,15.80
2022-11-20T02:59:33.720Z,11.10
2022-11-20T03:02:00.641Z,14.48
2022-11-20T03:04:27.488Z,13.57
2022-11-20T03:06:54.512Z,13.38
2022-11-20T03:09:21.663Z,11.27
2022-11-20T03:11:48.864Z,13.60
2022-11-20T03:14:15.779Z,15.65
2022-11-20T03:16:42.728Z,11.80
2022-11-20T03:19:09.551Z,15.57
2022-11-20T03:21:36.774Z,12.53
2022-11-20T03:24:04.366Z,13.93
2022-11-20T03:26:31.575Z,13.13
2022-11-20T03:29:04.696Z,14.35
2022-11-20T03:31:36.993Z,12.07
2022-11-20T03:34:04.962Z,10.83
2022-11-20T03:36:32.412Z,12.25
2022-11-20T03:38:59.928Z,15.00
2022-11-20T03:41:29.632Z,15.88
2022-11-20T03:43:59.501Z,12.85
2022-11-20T03:46:27.638Z,15.63
2022-11-20T03:48:55.430Z,11.20
2022-11-20T03:51:25.098Z,11.80
2022-11-20T03:53:53.793Z,14.57
2022-11-20T03:56:24.536Z,14.18
2022-11-20T03:58:51.558Z,10.60
2022-11-20T04:01:21.039Z,11.65
2022-11-20T04:03:48.440Z,11.52
2022-11-20T04:06:18.452Z,13.13
2022-11-20T04:08:49.704Z,10.93
2022-11-20T04:11:22.257Z,12.10
2022-11-20T04:13:52.004Z,13.43
2022-11-20T04:16:19.666Z,13.50
2022-11-20T04:18:47.146Z,10.38
2022-11-20T04:21:14.154Z,11.57
2022-11-20T04:23:40.929Z,13.87
2022-11-20T04:26:10.234Z,12.82
2022-11-20T04:28:37.796Z,15.15
2022-11-20T04:31:13.594Z,10.15
2022-11-20T04:33:41.299Z,14.27
2022-11-20T04:36:28.537Z,12.40
2022-11-20T04:38:57.767Z,13.50
2022-11-20T04:41:26.828Z,11.02
2022-11-20T04:44:00.633Z,12.65
2022-11-20T04:46:29.198Z,11.48
2022-11-20T04:48:56.173Z,15.80
2022-11-20T04:51:23.491Z,11.02
2022-11-20T04:53:50.311Z,13.63
2022-11-20T04:56:17.970Z,11.25
2022-11-20T04:58:45.405Z,11.77
2022-11-20T05:01:17.756Z,13.23
2022-11-20T05:03:45.393Z,13.02
2022-11-20T05:06:15.378Z,11.90
2022-11-20T05:08:42.735Z,13.77
2022-11-20T05:11:12.172Z,13.25
2022-11-20T05:13:39.699Z,12.97
2022-11-20T05:16:09.469Z,13.48
2022-11-20T05:18:37.833Z,11.55
2022-11-20T05:21:05.359Z,10.63
2022-11-20T05:23:33.164Z,10.18
2022-11-20T05:26:00.415Z,12.80
2022-11-20T05:28:29.135Z,16.90
2022-11-20T05:30:56.096Z,10.98
2022-11-20T05:33:23.393Z,12.20
2022-11-20T05:35:50.403Z,13.45
2022-11-20T05:38:17.850Z,10.47
2022-11-20T05:40:44.778Z,12.57
2022-11-20T05:43:11.652Z,10.70
2022-11-20T05:45:38.482Z,10.38
2022-11-20T05:48:05.642Z,13.35
2022-11-20T05:50:32.635Z,13.47
2022-11-20T05:53:00.833Z,10.10
2022-11-20T05:55:28.737Z,11.77
2022-11-20T05:57:56.398Z,11.55
2022-11-20T06:00:23.563Z,11.65
2022-11-20T06:02:50.551Z,12.77
2022-11-20T06:05:17.714Z,14.48
2022-11-20T06:07:44.594Z,11.40
2022-11-20T06:10:11.548Z,11.38
2022-11-20T06:12:38.400Z,11.68
2022-11-20T06:15:06.540Z,10.33
2022-11-20T06:17:33.535Z,11.95
2022-11-20T06:20:00.395Z,9.80
2022-11-20T06:22:27.356Z,8.25
2022-11-20T06:24:54.174Z,11.82
2022-11-20T06:27:21.023Z,16.63
2022-11-20T06:29:47.823Z,11.85
2022-11-20T06:32:14.735Z,9.55
2022-11-20T06:34:41.508Z,12.82
2022-11-20T06:37:08.321Z,14.93
2022-11-20T06:39:35.139Z,11.53
2022-11-20T06:42:01.961Z,11.60
2022-11-20T06:44:28.831Z,9.32
2022-11-20T06:46:55.783Z,12.73
2022-11-20T06:49:22.882Z,10.68
2022-11-20T06:51:49.796Z,10.00
2022-11-20T06:54:16.564Z,9.23
2022-11-20T06:56:43.451Z,11.07
2022-11-20T06:59:10.213Z,10.77
2022-11-20T07:01:37.084Z,13.48
2022-11-20T07:04:04.361Z,11.50
2022-11-20T07:06:31.466Z,8.30
2022-11-20T07:08:58.711Z,13.75
2022-11-20T07:11:25.895Z,10.00
2022-11-20T07:13:52.652Z,14.25
2022-11-20T07:16:19.542Z,13.30
2022-11-20T07:18:50.578Z,14.18
2022-11-20T07:21:18.468Z,10.98
2022-11-20T07:23:45.311Z,11.88
2022-11-20T07:26:12.591Z,10.45
2022-11-20T07:28:39.664Z,13.60
2022-11-20T07:31:08.615Z,10.65
2022-11-20T07:33:35.547Z,11.25
2022-11-20T07:36:03.310Z,10.10
2022-11-20T07:38:30.362Z,16.40
2022-11-20T07:40:58.847Z,10.33
2022-11-20T07:43:26.480Z,14.10
2022-11-20T07:45:53.453Z,10.77
2022-11-20T07:48:20.097Z,13.57
2022-11-20T07:50:47.004Z,12.38
2022-11-20T07:53:14.971Z,13.30
2022-11-20T07:55:41.822Z,11.38
2022-11-20T07:58:08.605Z,14.18
2022-11-20T08:00:35.479Z,16.30
2022-11-20T08:03:05.574Z,11.68
2022-11-20T08:05:32.834Z,15.50
2022-11-20T08:07:59.655Z,9.50
2022-11-20T08:10:26.624Z,15.27
2022-11-20T08:13:12.960Z,12.38
2022-11-20T08:15:41.223Z,12.18
2022-11-20T08:20:58.784Z,15.55
2022-11-20T08:23:25.651Z,11.00
2022-11-20T08:25:52.583Z,14.82
2022-11-20T08:28:21.778Z,13.30
2022-11-20T08:30:50.117Z,17.80
2022-11-20T08:33:18.500Z,16.08
2022-11-20T08:35:45.755Z,14.27
2022-11-20T08:38:12.645Z,12.45
2022-11-20T08:40:39.500Z,19.98
2022-11-20T08:43:06.412Z,15.30
2022-11-20T08:45:34.915Z,18.60
2022-11-20T08:48:05.618Z,18.15
2022-11-20T08:50:34.074Z,16.92
2022-11-20T08:53:06.089Z,15.02
2022-11-20T08:55:33.427Z,16.87
2022-11-20T08:58:04.792Z,17.80
2022-11-20T09:00:31.708Z,14.40
2022-11-20T09:02:59.737Z,16.90
2022-11-20T09:05:26.646Z,22.77
2022-11-20T09:07:57.156Z,16.73
2022-11-20T09:10:25.080Z,17.98
2022-11-20T09:12:53.095Z,16.40
2022-11-20T09:15:20.652Z,18.65
2022-11-20T09:17:54.863Z,20.20
2022-11-20T09:20:21.879Z,16.07
2022-11-20T09:22:49.390Z,17.38
2022-11-20T09:25:16.464Z,17.60
2022-11-20T09:27:45.213Z,15.18
2022-11-20T09:30:12.964Z,17.90
2022-11-20T09:32:40.291Z,17.00
2022-11-20T09:35:07.545Z,17.88
2022-11-20T09:37:34.591Z,18.90
2022-11-20T09:40:01.471Z,19.00
2022-11-20T09:42:48.886Z,16.17
2022-11-20T09:45:24.819Z,17.43
2022-11-20T09:48:19.105Z,18.33
2022-11-20T09:50:59.137Z,16.90
2022-11-20T09:53:31.191Z,16.60
2022-11-20T09:55:58.535Z,18.02
2022-11-20T09:58:46.817Z,17.77
2022-11-20T10:01:19.413Z,18.05
2022-11-20T10:03:55.326Z,16.52
2022-11-20T10:06:29.865Z,17.77
2022-11-20T10:09:15.219Z,17.65
2022-11-20T10:11:51.645Z,18.80
2022-11-20T10:14:55.019Z,21.77
2022-11-20T10:17:43.220Z,20.60
2022-11-20T10:20:16.353Z,18.35
2022-11-20T10:23:08.990Z,16.13
2022-11-20T10:25:51.248Z,17.77
2022-11-20T10:28:55.518Z,15.55
2022-11-20T10:31:38.674Z,16.60
2022-11-20T10:34:23.019Z,21.45
2022-11-20T10:36:59.419Z,17.25
2022-11-20T10:39:54.320Z,20.60
2022-11-20T10:42:39.090Z,17.98
2022-11-20T10:45:23.811Z,18.00
2022-11-20T10:47:51.338Z,19.08
2022-11-20T10:50:22.849Z,20.35
2022-11-20T10:53:05.270Z,18.93
2022-11-20T10:55:49.937Z,21.25
2022-11-20T10:58:31.200Z,22.23
2022-11-20T11:01:18.292Z,26.40
2022-11-20T11:03:45.612Z,24.55
2022-11-20T11:06:38.145Z,20.53
2022-11-20T11:09:20.389Z,24.13
2022-11-20T11:11:47.424Z,23.50
2022-11-20T11:14:16.527Z,23.23
2022-11-20T11:16:55.527Z,18.70
2022-11-20T11:19:23.154Z,25.00
2022-11-20T11:21:56.231Z,21.85
2022-11-20T11:24:41.732Z,22.15
2022-11-20T11:27:17.694Z,23.13
2022-11-20T11:29:45.684Z,21.23
2022-11-20T11:32:22.952Z,19.63
2022-11-20T11:35:08.556Z,22.98
2022-11-20T11:37:38.314Z,23.17
2022-11-20T11:40:24.208Z,22.58
2022-11-20T11:42:59.291Z,25.05
2022-11-20T11:45:27.499Z,22.03
2022-11-20T11:47:59.396Z,25.02
2022-11-20T11:50:28.773Z,24.27
2022-11-20T11:53:14.315Z,26.20
2022-11-20T11:55:51.001Z,20.85
2022-11-20T11:58:43.240Z,27.90
2022-11-20T12:01:22.134Z,23.60
2022-11-20T12:04:37.670Z,24.55
2022-11-20T12:07:48.564Z,24.33
2022-11-20T12:10:42.298Z,26.02
2022-11-20T12:13:21.350Z,27.17
2022-11-20T12:15:49.354Z,22.55
2022-11-20T12:18:19.592Z,25.60
2022-11-20T12:21:21.750Z,25.38
2022-11-20T12:24:14.573Z,26.35
2022-11-20T12:26:56.460Z,24.13
2022-11-20T12:30:01.879Z,24.92
2022-11-20T12:32:51.992Z,22.73
2022-11-20T12:35:24.823Z,25.05
2022-11-20T12:37:57.552Z,22.15
2022-11-20T12:40:44.431Z,24.93
2022-11-20T12:43:45.973Z,24.10
2022-11-20T12:46:42.341Z,22.95
2022-11-20T12:49:18.174Z,25.27
2022-11-20T12:52:09.754Z,24.85
2022-11-20T12:55:11.979Z,24.27
2022-11-20T12:57:50.452Z,22.15
2022-11-20T13:00:22.626Z,25.80
2022-11-20T13:03:25.379Z,20.33
2022-11-20T13:06:21.873Z,23.85
2022-11-20T13:08:58.148Z,22.70
2022-11-20T13:11:53.349Z,26.55
2022-11-20T13:15:02.245Z,23.40
2022-11-20T13:17:41.387Z,25.23
2022-11-20T13:20:16.517Z,22.45
2022-11-20T13:22:46.610Z,25.20
2022-11-20T13:25:27.047Z,22.83
2022-11-20T13:27:55.806Z,26.90
2022-11-20T13:30:31.118Z,22.92
2022-11-20T13:33:05.924Z,25.58
2022-11-20T13:35:35.253Z,24.53
2022-11-20T13:38:08.921Z,25.65
2022-11-20T13:40:52.838Z,25.27
2022-11-20T13:43:38.450Z,22.10
2022-11-20T13:46:07.680Z,23.42
2022-11-20T13:48:47.026Z,25.00
2022-11-20T13:51:54.346Z,28.05
2022-11-20T13:54:58.201Z,25.58
2022-11-20T13:57:50.534Z,25.88
2022-11-20T14:00:26.944Z,24.77
2022-11-20T14:03:44.131Z,26.73
2022-11-20T14:09:34.282Z,22.00
2022-11-20T14:12:02.946Z,26.55
2022-11-20T14:14:31.764Z,27.10
2022-11-20T14:17:21.650Z,24.10
2022-11-20T14:19:53.921Z,22.95
2022-11-20T14:22:23.954Z,26.30
2022-11-20T14:28:29.617Z,25.98
2022-11-20T14:30:58.193Z,27.37
2022-11-20T14:33:36.098Z,26.40
2022-11-20T14:44:14.677Z,27.20
2022-11-20T14:46:44.125Z,24.27
2022-11-20T14:49:27.887Z,27.98
2022-11-20T14:52:15.066Z,23.52
2022-11-20T14:54:50.917Z,25.33
2022-11-20T14:57:32.294Z,25.93
2022-11-20T15:00:24.004Z,26.65
2022-11-20T15:02:52.856Z,21.88
2022-11-20T15:05:22.053Z,27.98
2022-11-20T15:08:06.972Z,23.85
2022-11-20T15:10:34.635Z,23.17
2022-11-20T15:13:09.758Z,25.33
2022-11-20T15:15:50.106Z,26.27
2022-11-20T15:18:19.953Z,26.15
2022-11-20T15:20:47.210Z,28.90
2022-11-20T15:23:16.039Z,29.00
2022-11-20T15:25:43.513Z,27.30
2022-11-20T15:28:43.609Z,26.17
2022-11-20T15:31:15.072Z,27.70
2022-11-20T15:33:42.454Z,29.00
2022-11-20T15:36:10.181Z,27.33
2022-11-20T15:38:37.411Z,29.55
2022-11-20T15:41:04.467Z,29.40
2022-11-20T15:43:31.378Z,25.42
2022-11-20T15:46:02.163Z,30.00
2022-11-20T15:48:32.380Z,31.10
2022-11-20T15:51:11.521Z,36.25
2022-11-20T15:53:39.986Z,41.47
2022-11-20T15:56:07.352Z,54.20
2022-11-20T15:58:34.168Z,35.70
2022-11-20T16:01:01.062Z,27.77
2022-11-20T16:03:27.943Z,28.90
2022-11-20T16:05:54.711Z,30.00
2022-11-20T16:08:21.572Z,29.13
2022-11-20T16:10:48.408Z,27.73
2022-11-20T16:13:36.800Z,33.43
2022-11-20T16:16:09.150Z,34.17
2022-11-20T16:18:36.205Z,29.40
2022-11-20T16:21:03.115Z,27.38
2022-11-20T16:23:30.264Z,27.75
2022-11-20T16:25:57.127Z,29.87
2022-11-20T16:28:24.009Z,29.60
2022-11-20T16:30:51.030Z,30.55
2022-11-20T16:33:18.576Z,28.75
2022-11-20T16:35:45.595Z,31.63
2022-11-20T16:38:12.532Z,32.47
2022-11-20T16:40:39.338Z,28.17
2022-11-20T16:43:14.760Z,28.50
2022-11-20T16:45:43.245Z,24.45
2022-11-20T16:48:15.142Z,27.42
2022-11-20T16:50:48.195Z,26.67
2022-11-20T16:53:15.246Z,29.20
2022-11-20T16:55:42.213Z,22.83
2022-11-20T16:58:09.555Z,26.88
2022-11-20T17:00:38.127Z,23.23
2022-11-20T17:03:06.345Z,26.43
2022-11-20T17:05:34.594Z,24.08
2022-11-20T17:08:01.935Z,21.85
2022-11-20T17:10:28.886Z,24.02
2022-11-20T17:12:55.741Z,23.08
2022-11-20T17:15:22.705Z,25.97
2022-11-20T17:17:49.524Z,26.80
2022-11-20T17:20:16.399Z,24.42
2022-11-20T17:22:43.193Z,29.17
2022-11-20T17:25:10.062Z,26.88
2022-11-20T17:27:36.860Z,26.83
2022-11-20T17:30:03.865Z,29.85
2022-11-20T17:32:30.709Z,27.50
2022-11-20T17:34:59.130Z,29.00
2022-11-20T17:37:26.062Z,30.23
2022-11-20T17:39:52.917Z,27.40
2022-11-20T17:42:30.112Z,26.83
2022-11-20T17:44:58.933Z,26.92
2022-11-20T17:47:26.485Z,27.42
2022-11-20T17:49:55.233Z,30.10
2022-11-20T17:52:22.891Z,26.97
2022-11-20T17:54:49.805Z,27.33
2022-11-20T17:57:35.056Z,27.10
2022-11-20T18:00:02.393Z,26.77
2022-11-20T18:02:29.486Z,27.60
2022-11-20T18:04:56.474Z,31.67
2022-11-20T18:07:23.401Z,28.40
2022-11-20T18:09:50.675Z,30.35
2022-11-20T18:12:20.362Z,25.80
2022-11-20T18:14:47.787Z,26.98
2022-11-20T18:17:15.544Z,25.40
2022-11-20T18:20:01.187Z,23.42
2022-11-20T18:22:32.795Z,25.73
2022-11-20T18:24:59.908Z,27.00
2022-11-20T18:27:26.804Z,28.20
2022-11-20T18:29:53.754Z,25.20
2022-11-20T18:32:22.071Z,24.63
2022-11-20T18:34:48.764Z,24.92
2022-11-20T18:37:16.707Z,22.73
2022-11-20T18:39:44.131Z,25.65
2022-11-20T18:42:35.189Z,25.10
2022-11-20T18:45:04.644Z,24.13
2022-11-20T18:47:36.294Z,26.02
2022-11-20T18:50:05.031Z,22.52
2022-11-20T18:52:34.740Z,26.38
2022-11-20T18:55:03.383Z,27.30
2022-11-20T18:57:30.587Z,23.10
2022-11-20T19:00:07.951Z,26.63
2022-11-20T19:02:41.119Z,24.17
2022-11-20T19:05:14.411Z,24.60
2022-11-20T19:07:41.899Z,24.00
2022-11-20T19:10:09.281Z,26.08
2022-11-20T19:12:36.218Z,23.42
2022-11-20T19:15:03.656Z,25.25
2022-11-20T19:17:30.460Z,25.70
2022-11-20T19:19:57.321Z,26.23
2022-11-20T19:22:24.205Z,25.38
2022-11-20T19:24:51.121Z,26.85
2022-11-20T19:27:18.051Z,22.83
2022-11-20T19:29:44.902Z,23.80
2022-11-20T19:32:11.846Z,26.80
2022-11-20T19:34:38.801Z,24.23
2022-11-20T19:37:05.697Z,26.23
2022-11-20T19:39:32.766Z,25.88
2022-11-20T19:41:59.562Z,28.63
2022-11-20T19:44:26.520Z,24.83
2022-11-20T19:46:53.801Z,29.13
2022-11-20T19:49:22.930Z,27.85
2022-11-20T19:51:51.415Z,21.95
2022-11-20T19:54:18.384Z,27.02
2022-11-20T19:56:47.305Z,22.23
2022-11-20T19:59:14.668Z,24.77
2022-11-20T20:01:41.524Z,23.65
2022-11-20T20:04:08.682Z,26.15
2022-11-20T20:06:38.998Z,23.30
2022-11-20T20:09:12.205Z,27.63
2022-11-20T20:11:40.059Z,24.13
2022-11-20T20:14:16.855Z,25.33
2022-11-20T20:16:44.091Z,26.05
2022-11-20T20:19:15.680Z,29.15
2022-11-20T20:21:43.114Z,25.97
2022-11-20T20:24:11.216Z,23.65
2022-11-20T20:26:38.187Z,29.15
2022-11-20T20:29:05.186Z,26.25
2022-11-20T20:31:33.849Z,28.85
2022-11-20T20:34:01.697Z,25.00
2022-11-20T20:36:28.729Z,24.58
2022-11-20T20:38:59.843Z,28.80
2022-11-20T20:41:27.321Z,27.38
2022-11-20T20:44:13.042Z,29.67
2022-11-20T20:46:40.691Z,32.90
2022-11-20T20:49:08.458Z,30.98
2022-11-20T20:51:35.972Z,26.23
2022-11-20T20:54:03.773Z,27.75
2022-11-20T20:56:30.732Z,36.63
2022-11-20T20:58:57.573Z,31.00
2022-11-20T21:01:28.895Z,34.75
2022-11-20T21:03:56.767Z,37.85
2022-11-20T21:06:23.958Z,37.42
2022-11-20T21:08:50.916Z,50.78
2022-11-20T21:11:20.016Z,31.80
2022-11-20T21:13:48.179Z,30.60
2022-11-20T21:16:17.521Z,32.70
2022-11-20T21:18:44.535Z,39.15
2022-11-20T21:21:34.332Z,29.23
2022-11-20T21:24:01.634Z,27.83
2022-11-20T21:26:28.619Z,27.58
2022-11-20T21:28:57.214Z,28.27
2022-11-20T21:31:26.780Z,29.65
2022-11-20T21:33:55.377Z,27.88
2022-11-20T21:36:27.128Z,25.97
2022-11-20T21:38:55.657Z,26.02
2022-11-20T21:41:23.452Z,26.83
2022-11-20T21:44:29.206Z,23.65
2022-11-20T21:46:44.116Z,26.40
2022-11-20T21:49:11.188Z,23.80
2022-11-20T21:51:38.256Z,28.90
2022-11-20T21:54:05.147Z,25.70
2022-11-20T21:56:32.107Z,30.00
2022-11-20T21:58:59.132Z,32.15
2022-11-20T22:01:28.684Z,27.90
2022-11-20T22:03:58.189Z,32.95
2022-11-20T22:06:27.529Z,26.08
2022-11-20T22:08:54.426Z,28.88
2022-11-20T22:11:22.265Z,27.25
2022-11-20T22:14:07.985Z,35.47
2022-11-20T22:16:35.947Z,30.27
2022-11-20T22:19:03.798Z,34.80
2022-11-20T22:21:31.182Z,30.58
2022-11-20T22:23:59.061Z,29.23
2022-11-20T22:26:28.173Z,28.83
2022-11-20T22:28:57.226Z,30.52
2022-11-20T22:31:25.709Z,31.45
2022-11-20T22:33:53.075Z,33.05
2022-11-20T22:36:22.725Z,31.40
2022-11-20T22:38:50.074Z,36.50
2022-11-20T22:41:27.735Z,35.72
2022-11-20T22:43:59.481Z,27.20
2022-11-20T22:46:27.685Z,32.40
2022-11-20T22:48:59.318Z,30.13
2022-11-20T22:51:31.266Z,35.30
2022-11-20T22:53:58.099Z,31.95
2022-11-20T22:56:25.366Z,29.55
2022-11-20T22:58:53.888Z,33.80
2022-11-20T23:01:32.339Z,32.17
2022-11-20T23:04:02.197Z,34.97
2022-11-20T23:06:29.890Z,31.70
2022-11-20T23:08:57.106Z,30.63
2022-11-20T23:11:26.600Z,33.85
2022-11-20T23:13:58.907Z,37.50
2022-11-20T23:16:27.895Z,33.43
2022-11-20T23:18:57.144Z,33.60
2022-11-20T23:21:24.699Z,32.58
2022-11-20T23:23:54.011Z,31.35
2022-11-20T23:26:23.524Z,30.85
2022-11-20T23:28:50.901Z,31.33
2022-11-20T23:31:17.794Z,31.35
2022-11-20T23:33:46.171Z,31.95
2022-11-20T23:36:13.899Z,31.58
2022-11-20T23:38:41.060Z,28.95
2022-11-20T23:41:08.304Z,32.07
2022-11-20T23:43:35.666Z,31.23
2022-11-20T23:46:03.932Z,33.38
2022-11-20T23:48:33.230Z,33.63
2022-11-20T23:51:00.497Z,33.03
2022-11-20T23:53:27.793Z,34.60
2022-11-20T23:55:57.261Z,31.00
2022-11-20T23:58:25.631Z,30.98
